Flight Track Log - Related Links

Times and Time Zones

All times are in EDT time to prevent confusion due to time zone crossing. See the N894KS flight status page for this flight to view local times or setup timezone preferences in your user account.

Time Position Orientation Groundspeed Altitude Reporting Facility
EDT Latitude Longitude Course Direction KTS MPH feet Rate Location/Type
Sat 09:19:10 PM 35.2964 -120.7408 306° West 193 222 4,700  Level Los Angeles Center
Sat 09:19:15 PM 35.2961 -120.7428 260° West 188 216 4,700 2,818 Level Los Angeles Center
Sat 09:20:16 PM 35.3400 -120.7167 26° Northeast 226 260 7,800 3,024 Climbing Los Angeles Center
Sat 09:21:18 PM 35.3528 -120.6275 80° East 250 288 10,900 2,780 Climbing Los Angeles Center
Sat 09:22:19 PM 35.3600 -120.5267 85° East 272 313 13,500 2,016 Climbing Los Angeles Center
Sat 09:23:20 PM 35.3706 -120.4139 83° East 300 345 15,000 732 Climbing Los Angeles Center
Sat 09:24:22 PM 35.3819 -120.2811 84° East 354 407 15,000  Level Los Angeles Center
Sat 09:25:23 PM 35.3939 -120.1503 84° East 382 440 15,000  Level Los Angeles Center
Sat 09:26:24 PM 35.4072 -120.0083 83° East 381 438 15,000 -488 Level Los Angeles Center
Sat 09:27:26 PM 35.4186 -119.8800 84° East 381 438 14,000 -1,463 Descending Los Angeles Center
Sat 09:28:27 PM 35.4306 -119.7581 83° East 368 423 12,000 -2,164 Descending Los Angeles Center
Sat 09:29:28 PM 35.4206 -119.6497 96° East 327 376 9,600 -2,049 Descending Los Angeles Center
Sat 09:30:30 PM 35.3858 -119.5422 112° Southeast 287 330 7,800 -1,268 Descending Los Angeles Center
Sat 09:31:31 PM 35.3586 -119.4561 111° Southeast 280 322 7,000 -358 Descending Los Angeles Center
Sat 09:32:44 PM 35.3319 -119.3694 111° Southeast 275 316 7,000 -133 Level Los Angeles Center
Sat 09:33:46 PM 35.3078 -119.2647 106° East 271 312 6,700 -1,561 Descending Los Angeles Center
Sat 09:34:47 PM 35.3139 -119.1775 85° East 262 302 3,800 -1,967 Descending Los Angeles Center
Sat 09:35:48 PM 35.3250 -119.1017 80° East 257 296 2,700 -1,082 Descending Los Angeles Center
Sat 09:37:00 PM 35.4381 -119.0886 North  Level FlightAware Approximate
Sat 09:44:00 PM 35.4333 -119.0500 151° Southeast  Level FlightAware Approximate

Login

Don't have an account? Register now (free) for customized features, flight alerts, and more!